sensor_id;sensor_type;location;lat;lon;timestamp;temperature;humidity
37530;DHT22;23374;52.758;6.872;2022-08-21T00:01:39;19.30;1.00
37530;DHT22;23374;52.758;6.872;2022-08-21T00:04:06;19.30;1.00
37530;DHT22;23374;52.758;6.872;2022-08-21T00:06:26;19.20;1.00
37530;DHT22;23374;52.758;6.872;2022-08-21T00:08:46;19.20;1.00
37530;DHT22;23374;52.758;6.872;2022-08-21T00:11:08;19.10;1.00
37530;DHT22;23374;52.758;6.872;2022-08-21T00:13:28;19.10;1.00
37530;DHT22;23374;52.758;6.872;2022-08-21T00:15:49;19.10;1.00
37530;DHT22;23374;52.758;6.872;2022-08-21T00:18:10;19.00;1.00
37530;DHT22;23374;52.758;6.872;2022-08-21T00:20:32;19.00;1.00
37530;DHT22;23374;52.758;6.872;2022-08-21T00:22:53;19.00;1.00
37530;DHT22;23374;52.758;6.872;2022-08-21T00:25:15;18.90;1.00
37530;DHT22;23374;52.758;6.872;2022-08-21T00:27:36;18.90;1.00
37530;DHT22;23374;52.758;6.872;2022-08-21T00:29:56;18.80;1.00
37530;DHT22;23374;52.758;6.872;2022-08-21T00:32:25;18.80;1.00
37530;DHT22;23374;52.758;6.872;2022-08-21T00:34:46;18.70;1.00
37530;DHT22;23374;52.758;6.872;2022-08-21T00:37:07;18.60;1.00
37530;DHT22;23374;52.758;6.872;2022-08-21T00:39:28;18.60;1.00
37530;DHT22;23374;52.758;6.872;2022-08-21T00:41:48;18.60;1.00
37530;DHT22;23374;52.758;6.872;2022-08-21T00:44:12;18.50;1.20
37530;DHT22;23374;52.758;6.872;2022-08-21T00:46:32;18.50;1.00
37530;DHT22;23374;52.758;6.872;2022-08-21T00:48:53;18.50;1.00
37530;DHT22;23374;52.758;6.872;2022-08-21T00:51:21;18.50;1.00
37530;DHT22;23374;52.758;6.872;2022-08-21T00:54:43;18.50;1.00
37530;DHT22;23374;52.758;6.872;2022-08-21T00:57:16;18.40;1.40
37530;DHT22;23374;52.758;6.872;2022-08-21T00:59:38;18.40;3.20
37530;DHT22;23374;52.758;6.872;2022-08-21T01:02:00;18.40;1.00
37530;DHT22;23374;52.758;6.872;2022-08-21T01:04:22;18.30;1.00
37530;DHT22;23374;52.758;6.872;2022-08-21T01:06:43;18.30;1.00
37530;DHT22;23374;52.758;6.872;2022-08-21T01:09:03;18.30;1.00
37530;DHT22;23374;52.758;6.872;2022-08-21T01:11:25;18.20;1.00
37530;DHT22;23374;52.758;6.872;2022-08-21T01:13:45;18.20;3.90
37530;DHT22;23374;52.758;6.872;2022-08-21T01:16:09;18.20;1.00
37530;DHT22;23374;52.758;6.872;2022-08-21T01:18:30;18.20;12.70
37530;DHT22;23374;52.758;6.872;2022-08-21T01:21:14;18.20;12.00
37530;DHT22;23374;52.758;6.872;2022-08-21T01:23:38;18.20;13.20
37530;DHT22;23374;52.758;6.872;2022-08-21T01:25:59;18.10;1.00
37530;DHT22;23374;52.758;6.872;2022-08-21T01:28:19;18.10;9.40
37530;DHT22;23374;52.758;6.872;2022-08-21T01:30:43;18.10;1.00
37530;DHT22;23374;52.758;6.872;2022-08-21T01:33:04;18.00;1.00
37530;DHT22;23374;52.758;6.872;2022-08-21T01:35:24;18.00;1.00
37530;DHT22;23374;52.758;6.872;2022-08-21T01:37:46;18.00;7.20
37530;DHT22;23374;52.758;6.872;2022-08-21T01:40:08;18.00;2.80
37530;DHT22;23374;52.758;6.872;2022-08-21T01:42:29;17.90;4.10
37530;DHT22;23374;52.758;6.872;2022-08-21T01:44:49;17.90;1.00
37530;DHT22;23374;52.758;6.872;2022-08-21T01:47:13;17.80;10.40
37530;DHT22;23374;52.758;6.872;2022-08-21T01:49:36;17.80;13.10
37530;DHT22;23374;52.758;6.872;2022-08-21T01:51:57;17.80;1.00
37530;DHT22;23374;52.758;6.872;2022-08-21T01:54:48;17.80;31.50
37530;DHT22;23374;52.758;6.872;2022-08-21T01:57:09;17.70;8.10
37530;DHT22;23374;52.758;6.872;2022-08-21T01:59:30;17.70;13.90
37530;DHT22;23374;52.758;6.872;2022-08-21T02:01:51;17.70;16.40
37530;DHT22;23374;52.758;6.872;2022-08-21T02:04:14;17.70;11.20
37530;DHT22;23374;52.758;6.872;2022-08-21T02:06:35;17.60;22.40
37530;DHT22;23374;52.758;6.872;2022-08-21T02:08:56;17.60;17.00
37530;DHT22;23374;52.758;6.872;2022-08-21T02:11:17;17.60;1.00
37530;DHT22;23374;52.758;6.872;2022-08-21T02:13:37;17.60;1.00
37530;DHT22;23374;52.758;6.872;2022-08-21T02:15:58;17.50;20.50
37530;DHT22;23374;52.758;6.872;2022-08-21T02:18:18;17.50;1.00
37530;DHT22;23374;52.758;6.872;2022-08-21T02:20:43;17.50;1.00
37530;DHT22;23374;52.758;6.872;2022-08-21T02:23:06;17.40;1.00
37530;DHT22;23374;52.758;6.872;2022-08-21T02:25:28;17.40;15.60
37530;DHT22;23374;52.758;6.872;2022-08-21T02:27:48;17.40;1.00
37530;DHT22;23374;52.758;6.872;2022-08-21T02:30:14;17.30;1.00
37530;DHT22;23374;52.758;6.872;2022-08-21T02:32:34;17.30;36.70
37530;DHT22;23374;52.758;6.872;2022-08-21T02:34:55;17.30;13.50
37530;DHT22;23374;52.758;6.872;2022-08-21T02:37:16;17.20;26.50
37530;DHT22;23374;52.758;6.872;2022-08-21T02:39:37;17.20;17.50
37530;DHT22;23374;52.758;6.872;2022-08-21T02:41:56;17.10;28.30
37530;DHT22;23374;52.758;6.872;2022-08-21T02:44:16;17.10;26.80
37530;DHT22;23374;52.758;6.872;2022-08-21T02:46:37;17.10;17.00
37530;DHT22;23374;52.758;6.872;2022-08-21T02:48:57;17.10;27.40
37530;DHT22;23374;52.758;6.872;2022-08-21T02:51:19;17.00;19.50
37530;DHT22;23374;52.758;6.872;2022-08-21T02:54:53;17.00;59.00
37530;DHT22;23374;52.758;6.872;2022-08-21T02:57:14;17.00;16.60
37530;DHT22;23374;52.758;6.872;2022-08-21T02:59:34;17.00;18.20
37530;DHT22;23374;52.758;6.872;2022-08-21T03:01:55;17.00;28.20
37530;DHT22;23374;52.758;6.872;2022-08-21T03:04:16;17.00;25.70
37530;DHT22;23374;52.758;6.872;2022-08-21T03:06:37;16.90;1.00
37530;DHT22;23374;52.758;6.872;2022-08-21T03:08:57;16.90;22.30
37530;DHT22;23374;52.758;6.872;2022-08-21T03:11:18;16.90;12.00
37530;DHT22;23374;52.758;6.872;2022-08-21T03:13:40;16.90;1.00
37530;DHT22;23374;52.758;6.872;2022-08-21T03:16:00;16.90;9.20
37530;DHT22;23374;52.758;6.872;2022-08-21T03:18:21;16.90;1.00
37530;DHT22;23374;52.758;6.872;2022-08-21T03:20:42;16.80;21.20
37530;DHT22;23374;52.758;6.872;2022-08-21T03:23:06;16.80;23.70
37530;DHT22;23374;52.758;6.872;2022-08-21T03:25:28;16.80;19.80
37530;DHT22;23374;52.758;6.872;2022-08-21T03:27:48;16.80;1.00
37530;DHT22;23374;52.758;6.872;2022-08-21T03:30:10;16.80;7.20
37530;DHT22;23374;52.758;6.872;2022-08-21T03:32:31;16.80;37.90
37530;DHT22;23374;52.758;6.872;2022-08-21T03:34:51;16.70;19.40
37530;DHT22;23374;52.758;6.872;2022-08-21T03:37:13;16.70;1.00
37530;DHT22;23374;52.758;6.872;2022-08-21T03:39:34;16.70;1.00
37530;DHT22;23374;52.758;6.872;2022-08-21T03:41:54;16.70;1.00
37530;DHT22;23374;52.758;6.872;2022-08-21T03:44:15;16.70;1.90
37530;DHT22;23374;52.758;6.872;2022-08-21T03:46:35;16.70;1.00
37530;DHT22;23374;52.758;6.872;2022-08-21T03:48:55;16.70;1.00
37530;DHT22;23374;52.758;6.872;2022-08-21T03:51:16;16.70;1.00
37530;DHT22;23374;52.758;6.872;2022-08-21T03:53:36;16.60;1.00
37530;DHT22;23374;52.758;6.872;2022-08-21T03:55:56;16.60;16.50
37530;DHT22;23374;52.758;6.872;2022-08-21T03:58:22;16.60;3.90
37530;DHT22;23374;52.758;6.872;2022-08-21T04:00:46;16.60;11.40
37530;DHT22;23374;52.758;6.872;2022-08-21T04:03:07;16.70;39.90
37530;DHT22;23374;52.758;6.872;2022-08-21T04:05:27;16.70;25.70
37530;DHT22;23374;52.758;6.872;2022-08-21T04:07:48;16.70;54.60
37530;DHT22;23374;52.758;6.872;2022-08-21T04:10:09;16.70;58.60
37530;DHT22;23374;52.758;6.872;2022-08-21T04:12:29;16.70;77.40
37530;DHT22;23374;52.758;6.872;2022-08-21T04:14:50;16.70;60.30
37530;DHT22;23374;52.758;6.872;2022-08-21T04:17:13;16.70;70.60
37530;DHT22;23374;52.758;6.872;2022-08-21T04:19:33;16.60;93.30
37530;DHT22;23374;52.758;6.872;2022-08-21T04:21:54;16.70;89.20
37530;DHT22;23374;52.758;6.872;2022-08-21T04:24:14;16.60;92.70
37530;DHT22;23374;52.758;6.872;2022-08-21T04:26:35;16.60;99.90
37530;DHT22;23374;52.758;6.872;2022-08-21T04:28:56;16.60;77.70
37530;DHT22;23374;52.758;6.872;2022-08-21T04:31:18;16.60;94.10
37530;DHT22;23374;52.758;6.872;2022-08-21T04:33:38;16.50;88.70
37530;DHT22;23374;52.758;6.872;2022-08-21T04:35:58;16.60;93.10
37530;DHT22;23374;52.758;6.872;2022-08-21T04:38:19;16.50;99.60
37530;DHT22;23374;52.758;6.872;2022-08-21T04:40:40;16.60;94.70
37530;DHT22;23374;52.758;6.872;2022-08-21T04:43:07;16.60;94.70
37530;DHT22;23374;52.758;6.872;2022-08-21T04:45:32;16.60;96.90
37530;DHT22;23374;52.758;6.872;2022-08-21T04:47:57;16.60;82.80
37530;DHT22;23374;52.758;6.872;2022-08-21T04:50:18;16.60;95.60
37530;DHT22;23374;52.758;6.872;2022-08-21T04:52:38;16.60;66.90
37530;DHT22;23374;52.758;6.872;2022-08-21T04:55:00;16.60;57.00
37530;DHT22;23374;52.758;6.872;2022-08-21T04:57:21;16.50;61.40
37530;DHT22;23374;52.758;6.872;2022-08-21T04:59:50;16.50;42.50
37530;DHT22;23374;52.758;6.872;2022-08-21T05:02:11;16.50;75.40
37530;DHT22;23374;52.758;6.872;2022-08-21T05:04:36;16.40;55.10
37530;DHT22;23374;52.758;6.872;2022-08-21T05:07:01;16.40;70.80
37530;DHT22;23374;52.758;6.872;2022-08-21T05:09:22;16.50;67.30
37530;DHT22;23374;52.758;6.872;2022-08-21T05:11:44;16.50;78.50
37530;DHT22;23374;52.758;6.872;2022-08-21T05:14:04;16.50;73.90
37530;DHT22;23374;52.758;6.872;2022-08-21T05:16:25;16.50;56.00
37530;DHT22;23374;52.758;6.872;2022-08-21T05:18:45;16.60;71.00
37530;DHT22;23374;52.758;6.872;2022-08-21T05:21:05;16.80;79.80
37530;DHT22;23374;52.758;6.872;2022-08-21T05:23:25;16.90;88.00
37530;DHT22;23374;52.758;6.872;2022-08-21T05:25:46;17.00;59.20
37530;DHT22;23374;52.758;6.872;2022-08-21T05:28:06;17.10;66.90
37530;DHT22;23374;52.758;6.872;2022-08-21T05:30:27;17.10;40.50
37530;DHT22;23374;52.758;6.872;2022-08-21T05:32:47;17.20;78.60
37530;DHT22;23374;52.758;6.872;2022-08-21T05:35:08;17.30;48.30
37530;DHT22;23374;52.758;6.872;2022-08-21T05:37:28;17.50;72.30
37530;DHT22;23374;52.758;6.872;2022-08-21T05:39:49;17.80;45.90
37530;DHT22;23374;52.758;6.872;2022-08-21T05:42:09;18.10;46.90
37530;DHT22;23374;52.758;6.872;2022-08-21T05:44:30;18.40;49.00
37530;DHT22;23374;52.758;6.872;2022-08-21T05:46:50;18.70;19.70
37530;DHT22;23374;52.758;6.872;2022-08-21T05:49:11;18.90;8.20
37530;DHT22;23374;52.758;6.872;2022-08-21T05:51:32;19.10;26.20
37530;DHT22;23374;52.758;6.872;2022-08-21T05:53:52;19.00;1.00
37530;DHT22;23374;52.758;6.872;2022-08-21T05:56:13;19.00;1.00
37530;DHT22;23374;52.758;6.872;2022-08-21T05:58:34;18.90;16.80
37530;DHT22;23374;52.758;6.872;2022-08-21T06:00:55;18.80;1.00
37530;DHT22;23374;52.758;6.872;2022-08-21T06:03:26;18.70;1.00
37530;DHT22;23374;52.758;6.872;2022-08-21T06:05:47;18.60;21.90
37530;DHT22;23374;52.758;6.872;2022-08-21T06:08:08;18.30;1.00
37530;DHT22;23374;52.758;6.872;2022-08-21T06:10:28;18.10;1.00
37530;DHT22;23374;52.758;6.872;2022-08-21T06:12:53;17.90;14.10
37530;DHT22;23374;52.758;6.872;2022-08-21T06:15:14;17.80;30.60
37530;DHT22;23374;52.758;6.872;2022-08-21T06:17:35;17.80;42.80
37530;DHT22;23374;52.758;6.872;2022-08-21T06:19:55;17.70;19.30
37530;DHT22;23374;52.758;6.872;2022-08-21T06:22:15;17.60;50.40
37530;DHT22;23374;52.758;6.872;2022-08-21T06:24:35;17.60;57.50
37530;DHT22;23374;52.758;6.872;2022-08-21T06:26:56;17.50;69.70
37530;DHT22;23374;52.758;6.872;2022-08-21T06:29:17;17.40;83.30
37530;DHT22;23374;52.758;6.872;2022-08-21T06:31:39;17.40;78.30
37530;DHT22;23374;52.758;6.872;2022-08-21T06:34:01;17.50;90.70
37530;DHT22;23374;52.758;6.872;2022-08-21T06:36:21;17.50;93.90
37530;DHT22;23374;52.758;6.872;2022-08-21T06:38:41;17.60;99.90
37530;DHT22;23374;52.758;6.872;2022-08-21T06:41:03;17.60;99.80
37530;DHT22;23374;52.758;6.872;2022-08-21T06:43:23;17.70;98.70
37530;DHT22;23374;52.758;6.872;2022-08-21T06:45:44;17.70;99.40
37530;DHT22;23374;52.758;6.872;2022-08-21T06:48:05;17.80;97.00
37530;DHT22;23374;52.758;6.872;2022-08-21T06:50:27;17.80;95.00
37530;DHT22;23374;52.758;6.872;2022-08-21T06:52:47;17.90;99.90
37530;DHT22;23374;52.758;6.872;2022-08-21T06:55:09;17.90;99.90
37530;DHT22;23374;52.758;6.872;2022-08-21T06:57:30;17.90;99.90
37530;DHT22;23374;52.758;6.872;2022-08-21T06:59:50;18.00;99.90
37530;DHT22;23374;52.758;6.872;2022-08-21T07:02:11;18.10;99.90
37530;DHT22;23374;52.758;6.872;2022-08-21T07:04:31;18.20;99.90
37530;DHT22;23374;52.758;6.872;2022-08-21T07:06:51;18.30;99.90
37530;DHT22;23374;52.758;6.872;2022-08-21T07:09:12;18.40;93.00
37530;DHT22;23374;52.758;6.872;2022-08-21T07:11:32;18.50;77.70
37530;DHT22;23374;52.758;6.872;2022-08-21T07:13:55;18.60;61.00
37530;DHT22;23374;52.758;6.872;2022-08-21T07:16:16;18.60;59.60
37530;DHT22;23374;52.758;6.872;2022-08-21T07:18:37;18.70;81.20
37530;DHT22;23374;52.758;6.872;2022-08-21T07:20:57;18.80;91.90
37530;DHT22;23374;52.758;6.872;2022-08-21T07:23:24;18.90;97.90
37530;DHT22;23374;52.758;6.872;2022-08-21T07:25:46;19.00;87.20
37530;DHT22;23374;52.758;6.872;2022-08-21T07:28:06;19.10;93.80
37530;DHT22;23374;52.758;6.872;2022-08-21T07:30:27;19.10;75.10
37530;DHT22;23374;52.758;6.872;2022-08-21T07:32:48;19.20;54.40
37530;DHT22;23374;52.758;6.872;2022-08-21T07:35:09;19.20;61.30
37530;DHT22;23374;52.758;6.872;2022-08-21T07:37:30;19.30;59.80
37530;DHT22;23374;52.758;6.872;2022-08-21T07:39:50;19.40;74.90
37530;DHT22;23374;52.758;6.872;2022-08-21T07:42:11;19.50;47.80
37530;DHT22;23374;52.758;6.872;2022-08-21T07:44:31;19.60;45.00
37530;DHT22;23374;52.758;6.872;2022-08-21T07:46:54;19.70;51.80
37530;DHT22;23374;52.758;6.872;2022-08-21T07:49:14;19.70;25.60
37530;DHT22;23374;52.758;6.872;2022-08-21T07:51:34;19.80;49.20
37530;DHT22;23374;52.758;6.872;2022-08-21T07:53:57;19.90;17.30
37530;DHT22;23374;52.758;6.872;2022-08-21T07:56:19;19.90;18.00
37530;DHT22;23374;52.758;6.872;2022-08-21T07:58:39;20.00;5.20
37530;DHT22;23374;52.758;6.872;2022-08-21T08:00:59;20.10;27.60
37530;DHT22;23374;52.758;6.872;2022-08-21T08:03:20;20.20;12.80
37530;DHT22;23374;52.758;6.872;2022-08-21T08:05:40;20.20;3.50
37530;DHT22;23374;52.758;6.872;2022-08-21T08:08:01;20.20;17.40
37530;DHT22;23374;52.758;6.872;2022-08-21T08:10:23;20.20;16.60
37530;DHT22;23374;52.758;6.872;2022-08-21T08:12:44;20.30;1.00
37530;DHT22;23374;52.758;6.872;2022-08-21T08:15:09;20.30;1.00
37530;DHT22;23374;52.758;6.872;2022-08-21T08:17:29;20.30;1.00
37530;DHT22;23374;52.758;6.872;2022-08-21T08:19:52;20.30;1.00
37530;DHT22;23374;52.758;6.872;2022-08-21T08:22:18;20.40;1.00
37530;DHT22;23374;52.758;6.872;2022-08-21T08:24:43;20.50;1.00
37530;DHT22;23374;52.758;6.872;2022-08-21T08:27:03;20.50;1.00
37530;DHT22;23374;52.758;6.872;2022-08-21T08:29:23;20.60;1.00
37530;DHT22;23374;52.758;6.872;2022-08-21T08:31:44;20.60;1.00
37530;DHT22;23374;52.758;6.872;2022-08-21T08:34:04;20.70;1.00
37530;DHT22;23374;52.758;6.872;2022-08-21T08:36:34;20.70;1.00
37530;DHT22;23374;52.758;6.872;2022-08-21T08:38:55;20.80;1.00
37530;DHT22;23374;52.758;6.872;2022-08-21T08:41:19;20.90;1.00
37530;DHT22;23374;52.758;6.872;2022-08-21T08:43:53;21.00;1.00
37530;DHT22;23374;52.758;6.872;2022-08-21T08:46:16;21.00;1.00
37530;DHT22;23374;52.758;6.872;2022-08-21T08:48:59;21.10;1.00
37530;DHT22;23374;52.758;6.872;2022-08-21T08:51:30;21.10;1.00
37530;DHT22;23374;52.758;6.872;2022-08-21T08:54:01;21.10;1.00
37530;DHT22;23374;52.758;6.872;2022-08-21T08:56:30;21.20;1.00
37530;DHT22;23374;52.758;6.872;2022-08-21T08:58:52;21.20;1.00
37530;DHT22;23374;52.758;6.872;2022-08-21T09:01:19;21.20;1.00
37530;DHT22;23374;52.758;6.872;2022-08-21T09:03:39;21.30;1.00
37530;DHT22;23374;52.758;6.872;2022-08-21T09:14:08;21.50;1.00
37530;DHT22;23374;52.758;6.872;2022-08-21T09:26:17;21.90;1.00
37530;DHT22;23374;52.758;6.872;2022-08-21T09:28:39;22.10;1.00
37530;DHT22;23374;52.758;6.872;2022-08-21T09:31:06;22.10;1.00
37530;DHT22;23374;52.758;6.872;2022-08-21T09:33:26;22.00;1.00
37530;DHT22;23374;52.758;6.872;2022-08-21T09:35:53;21.90;1.00
37530;DHT22;23374;52.758;6.872;2022-08-21T09:38:29;21.90;1.00
37530;DHT22;23374;52.758;6.872;2022-08-21T09:40:59;22.00;1.00
37530;DHT22;23374;52.758;6.872;2022-08-21T09:43:23;22.00;1.00
37530;DHT22;23374;52.758;6.872;2022-08-21T09:45:49;22.00;1.00
37530;DHT22;23374;52.758;6.872;2022-08-21T09:48:24;22.10;1.00
37530;DHT22;23374;52.758;6.872;2022-08-21T09:50:46;22.30;1.00
37530;DHT22;23374;52.758;6.872;2022-08-21T09:53:18;22.40;1.00
37530;DHT22;23374;52.758;6.872;2022-08-21T09:56:02;22.50;1.00
37530;DHT22;23374;52.758;6.872;2022-08-21T09:58:44;22.60;1.00
37530;DHT22;23374;52.758;6.872;2022-08-21T10:01:06;22.80;1.00
37530;DHT22;23374;52.758;6.872;2022-08-21T10:03:27;22.80;1.00
37530;DHT22;23374;52.758;6.872;2022-08-21T10:06:04;22.90;1.00
37530;DHT22;23374;52.758;6.872;2022-08-21T10:08:28;22.80;1.00
37530;DHT22;23374;52.758;6.872;2022-08-21T10:11:06;22.90;1.00
37530;DHT22;23374;52.758;6.872;2022-08-21T10:17:52;23.00;1.00
37530;DHT22;23374;52.758;6.872;2022-08-21T10:20:29;23.10;1.00
37530;DHT22;23374;52.758;6.872;2022-08-21T10:25:14;23.00;1.00
37530;DHT22;23374;52.758;6.872;2022-08-21T10:30:09;22.90;1.00
37530;DHT22;23374;52.758;6.872;2022-08-21T10:35:33;23.10;1.00
37530;DHT22;23374;52.758;6.872;2022-08-21T10:38:38;23.20;1.00
37530;DHT22;23374;52.758;6.872;2022-08-21T10:48:01;23.40;1.00
37530;DHT22;23374;52.758;6.872;2022-08-21T10:50:48;23.40;1.00
37530;DHT22;23374;52.758;6.872;2022-08-21T10:55:57;23.40;1.00
37530;DHT22;23374;52.758;6.872;2022-08-21T10:58:37;23.60;1.00
37530;DHT22;23374;52.758;6.872;2022-08-21T11:01:11;23.80;1.00
37530;DHT22;23374;52.758;6.872;2022-08-21T11:03:46;23.80;1.00
37530;DHT22;23374;52.758;6.872;2022-08-21T11:06:15;23.90;1.00
37530;DHT22;23374;52.758;6.872;2022-08-21T11:08:43;24.00;1.00
37530;DHT22;23374;52.758;6.872;2022-08-21T11:11:20;24.00;1.00
37530;DHT22;23374;52.758;6.872;2022-08-21T11:14:04;24.00;1.00
37530;DHT22;23374;52.758;6.872;2022-08-21T11:16:46;24.20;1.00
37530;DHT22;23374;52.758;6.872;2022-08-21T11:19:41;24.40;1.00
37530;DHT22;23374;52.758;6.872;2022-08-21T11:22:25;24.60;1.00
37530;DHT22;23374;52.758;6.872;2022-08-21T11:25:35;24.60;99.90
37530;DHT22;23374;52.758;6.872;2022-08-21T11:28:06;24.70;1.00
37530;DHT22;23374;52.758;6.872;2022-08-21T11:32:21;24.80;1.00
37530;DHT22;23374;52.758;6.872;2022-08-21T11:45:56;24.80;99.90
37530;DHT22;23374;52.758;6.872;2022-08-21T11:50:28;24.60;1.00
37530;DHT22;23374;52.758;6.872;2022-08-21T11:53:00;24.70;1.00
37530;DHT22;23374;52.758;6.872;2022-08-21T11:59:10;24.80;99.90
37530;DHT22;23374;52.758;6.872;2022-08-21T12:01:37;24.80;1.00
37530;DHT22;23374;52.758;6.872;2022-08-21T12:04:15;24.90;1.00
37530;DHT22;23374;52.758;6.872;2022-08-21T12:06:40;24.90;1.00
37530;DHT22;23374;52.758;6.872;2022-08-21T12:09:33;24.90;99.90
37530;DHT22;23374;52.758;6.872;2022-08-21T12:12:12;24.90;99.90
37530;DHT22;23374;52.758;6.872;2022-08-21T12:15:04;25.10;99.90
37530;DHT22;23374;52.758;6.872;2022-08-21T12:17:37;25.30;99.90
37530;DHT22;23374;52.758;6.872;2022-08-21T12:20:02;25.20;99.90
37530;DHT22;23374;52.758;6.872;2022-08-21T12:22:40;25.10;99.90
37530;DHT22;23374;52.758;6.872;2022-08-21T12:25:17;25.10;99.90
37530;DHT22;23374;52.758;6.872;2022-08-21T12:27:50;25.20;99.90
37530;DHT22;23374;52.758;6.872;2022-08-21T12:30:39;25.40;99.90
37530;DHT22;23374;52.758;6.872;2022-08-21T12:33:04;25.50;99.90
37530;DHT22;23374;52.758;6.872;2022-08-21T12:35:31;25.60;99.90
37530;DHT22;23374;52.758;6.872;2022-08-21T12:38:39;25.70;99.90
37530;DHT22;23374;52.758;6.872;2022-08-21T12:42:14;25.80;99.90
37530;DHT22;23374;52.758;6.872;2022-08-21T12:44:51;25.90;99.90
37530;DHT22;23374;52.758;6.872;2022-08-21T12:47:36;26.00;99.90
37530;DHT22;23374;52.758;6.872;2022-08-21T12:50:17;26.10;99.90
37530;DHT22;23374;52.758;6.872;2022-08-21T12:53:09;26.10;99.90
37530;DHT22;23374;52.758;6.872;2022-08-21T12:55:33;26.10;99.90
37530;DHT22;23374;52.758;6.872;2022-08-21T12:57:53;26.10;99.90
37530;DHT22;23374;52.758;6.872;2022-08-21T13:00:22;26.10;99.90
37530;DHT22;23374;52.758;6.872;2022-08-21T13:02:47;26.00;99.90
37530;DHT22;23374;52.758;6.872;2022-08-21T13:05:13;26.10;99.90
37530;DHT22;23374;52.758;6.872;2022-08-21T13:07:36;26.10;99.90
37530;DHT22;23374;52.758;6.872;2022-08-21T13:10:19;26.20;99.90
37530;DHT22;23374;52.758;6.872;2022-08-21T13:12:41;26.20;99.90
37530;DHT22;23374;52.758;6.872;2022-08-21T13:15:05;26.00;99.90
37530;DHT22;23374;52.758;6.872;2022-08-21T13:17:26;25.90;99.90
37530;DHT22;23374;52.758;6.872;2022-08-21T13:19:59;25.90;99.90
37530;DHT22;23374;52.758;6.872;2022-08-21T13:22:20;25.90;99.90
37530;DHT22;23374;52.758;6.872;2022-08-21T13:24:40;26.00;99.90
37530;DHT22;23374;52.758;6.872;2022-08-21T13:27:01;26.00;99.90
37530;DHT22;23374;52.758;6.872;2022-08-21T13:29:32;26.00;99.90
37530;DHT22;23374;52.758;6.872;2022-08-21T13:31:59;26.10;99.90
37530;DHT22;23374;52.758;6.872;2022-08-21T13:34:29;26.10;99.90
37530;DHT22;23374;52.758;6.872;2022-08-21T13:36:58;26.00;99.90
37530;DHT22;23374;52.758;6.872;2022-08-21T13:39:20;26.00;99.90
37530;DHT22;23374;52.758;6.872;2022-08-21T13:41:43;25.90;99.90
37530;DHT22;23374;52.758;6.872;2022-08-21T13:44:18;25.80;99.90
37530;DHT22;23374;52.758;6.872;2022-08-21T13:46:39;25.80;99.90
37530;DHT22;23374;52.758;6.872;2022-08-21T13:49:01;25.90;99.90
37530;DHT22;23374;52.758;6.872;2022-08-21T13:51:22;25.90;99.90
37530;DHT22;23374;52.758;6.872;2022-08-21T13:53:53;25.90;99.90
37530;DHT22;23374;52.758;6.872;2022-08-21T13:56:48;26.00;99.90
37530;DHT22;23374;52.758;6.872;2022-08-21T13:59:08;26.30;99.90
37530;DHT22;23374;52.758;6.872;2022-08-21T14:01:52;26.50;99.90
37530;DHT22;23374;52.758;6.872;2022-08-21T14:04:31;26.70;99.90
37530;DHT22;23374;52.758;6.872;2022-08-21T14:06:52;26.60;99.90
37530;DHT22;23374;52.758;6.872;2022-08-21T14:09:26;26.50;99.90
37530;DHT22;23374;52.758;6.872;2022-08-21T14:11:48;26.40;99.90
37530;DHT22;23374;52.758;6.872;2022-08-21T14:14:31;26.40;99.90
37530;DHT22;23374;52.758;6.872;2022-08-21T14:17:04;26.60;99.90
37530;DHT22;23374;52.758;6.872;2022-08-21T14:19:36;26.70;99.90
37530;DHT22;23374;52.758;6.872;2022-08-21T14:21:57;26.80;99.90
37530;DHT22;23374;52.758;6.872;2022-08-21T14:24:30;27.00;99.90
37530;DHT22;23374;52.758;6.872;2022-08-21T14:27:01;27.00;81.50
37530;DHT22;23374;52.758;6.872;2022-08-21T14:29:26;26.90;99.90
37530;DHT22;23374;52.758;6.872;2022-08-21T14:31:57;26.90;99.90
37530;DHT22;23374;52.758;6.872;2022-08-21T14:34:18;27.00;99.90
37530;DHT22;23374;52.758;6.872;2022-08-21T14:36:39;27.10;99.90
37530;DHT22;23374;52.758;6.872;2022-08-21T14:38:59;27.20;99.90
37530;DHT22;23374;52.758;6.872;2022-08-21T14:41:23;27.20;99.90
37530;DHT22;23374;52.758;6.872;2022-08-21T14:43:47;27.20;99.90
37530;DHT22;23374;52.758;6.872;2022-08-21T14:46:08;27.10;99.90
37530;DHT22;23374;52.758;6.872;2022-08-21T14:48:29;27.00;99.90
37530;DHT22;23374;52.758;6.872;2022-08-21T14:50:49;27.00;99.90
37530;DHT22;23374;52.758;6.872;2022-08-21T14:53:10;26.80;99.90
37530;DHT22;23374;52.758;6.872;2022-08-21T14:55:31;26.80;99.90
37530;DHT22;23374;52.758;6.872;2022-08-21T14:58:25;26.70;99.90
37530;DHT22;23374;52.758;6.872;2022-08-21T15:00:45;26.60;99.90
37530;DHT22;23374;52.758;6.872;2022-08-21T15:03:02;26.50;99.90
37530;DHT22;23374;52.758;6.872;2022-08-21T15:05:22;26.50;99.90
37530;DHT22;23374;52.758;6.872;2022-08-21T15:07:42;26.40;99.90
37530;DHT22;23374;52.758;6.872;2022-08-21T15:10:06;26.30;99.90
37530;DHT22;23374;52.758;6.872;2022-08-21T15:12:26;26.20;99.90
37530;DHT22;23374;52.758;6.872;2022-08-21T15:14:47;26.10;99.90
37530;DHT22;23374;52.758;6.872;2022-08-21T15:17:09;26.00;99.90
37530;DHT22;23374;52.758;6.872;2022-08-21T15:19:30;26.00;99.90
37530;DHT22;23374;52.758;6.872;2022-08-21T15:21:50;25.90;99.90
37530;DHT22;23374;52.758;6.872;2022-08-21T15:24:11;25.90;99.90
37530;DHT22;23374;52.758;6.872;2022-08-21T15:26:31;25.90;99.90
37530;DHT22;23374;52.758;6.872;2022-08-21T15:28:52;25.90;99.90
37530;DHT22;23374;52.758;6.872;2022-08-21T15:31:12;25.80;99.90
37530;DHT22;23374;52.758;6.872;2022-08-21T15:33:33;25.70;99.90
37530;DHT22;23374;52.758;6.872;2022-08-21T15:35:53;25.70;99.90
37530;DHT22;23374;52.758;6.872;2022-08-21T15:38:15;25.70;99.90
37530;DHT22;23374;52.758;6.872;2022-08-21T15:40:36;25.70;99.90
37530;DHT22;23374;52.758;6.872;2022-08-21T15:42:59;25.70;99.90
37530;DHT22;23374;52.758;6.872;2022-08-21T15:45:20;25.60;99.90
37530;DHT22;23374;52.758;6.872;2022-08-21T15:47:44;25.60;99.90
37530;DHT22;23374;52.758;6.872;2022-08-21T15:50:08;25.60;99.90
37530;DHT22;23374;52.758;6.872;2022-08-21T15:52:28;25.50;99.90
37530;DHT22;23374;52.758;6.872;2022-08-21T15:54:49;25.50;99.90
37530;DHT22;23374;52.758;6.872;2022-08-21T15:57:13;25.50;99.90
37530;DHT22;23374;52.758;6.872;2022-08-21T15:59:59;25.50;99.90
37530;DHT22;23374;52.758;6.872;2022-08-21T16:02:30;25.50;99.90
37530;DHT22;23374;52.758;6.872;2022-08-21T16:04:51;25.50;99.90
37530;DHT22;23374;52.758;6.872;2022-08-21T16:07:11;25.50;99.90
37530;DHT22;23374;52.758;6.872;2022-08-21T16:09:32;25.50;99.90
37530;DHT22;23374;52.758;6.872;2022-08-21T16:11:52;25.40;99.90
37530;DHT22;23374;52.758;6.872;2022-08-21T16:14:14;25.40;99.90
37530;DHT22;23374;52.758;6.872;2022-08-21T16:16:36;25.30;99.90
37530;DHT22;23374;52.758;6.872;2022-08-21T16:18:57;25.30;99.90
37530;DHT22;23374;52.758;6.872;2022-08-21T16:21:18;25.20;99.90
37530;DHT22;23374;52.758;6.872;2022-08-21T16:23:38;25.20;99.90